Time;durP1;ratioP1;P1;durP2;ratioP2;P2;SDS_P1;SDS_P2;PMS_P1;PMS_P2;Temp;Humidity;BMP_temperature;BMP_pressure;BME280_temperature;BME280_humidity;BME280_pressure;Samples;Min_cycle;Max_cycle;Signal;HPM_P1;HPM_P2
2021/12/30 00:00:46;;;;;;;32.15;7.43;;;13.20;99.90;;;;;;5075771;28;20060;-82
2021/12/30 00:03:12;;;;;;;39.63;7.80;;;13.20;99.90;;;;;;5075505;28;20037;-82
2021/12/30 00:05:39;;;;;;;40.47;7.97;;;13.20;99.90;;;;;;5075240;28;20107;-82
2021/12/30 00:08:05;;;;;;;48.85;8.90;;;13.30;99.90;;;;;;5075468;28;20032;-82
2021/12/30 00:10:32;;;;;;;39.28;7.90;;;13.30;99.90;;;;;;5074181;28;20048;-82
2021/12/30 00:12:58;;;;;;;35.72;6.47;;;13.30;99.90;;;;;;5075204;28;20025;-82
2021/12/30 00:15:25;;;;;;;37.17;7.60;;;13.30;99.90;;;;;;5075388;28;20069;-81
2021/12/30 00:17:50;;;;;;;37.10;7.43;;;13.30;99.90;;;;;;5073915;28;20052;-81
2021/12/30 00:20:18;;;;;;;33.13;7.00;;;13.40;99.90;;;;;;5073789;28;20032;-81
2021/12/30 00:22:44;;;;;;;32.95;7.63;;;13.40;99.90;;;;;;5075310;28;20056;-82
2021/12/30 00:25:11;;;;;;;30.95;7.20;;;13.50;99.90;;;;;;5075221;28;20098;-82
2021/12/30 00:27:39;;;;;;;25.85;6.75;;;13.40;99.90;;;;;;5073779;28;20089;-80
2021/12/30 00:30:07;;;;;;;36.65;7.65;;;13.50;99.90;;;;;;5075100;28;20024;-81
2021/12/30 00:32:33;;;;;;;26.13;6.65;;;13.40;99.90;;;;;;5075080;28;20462;-82
2021/12/30 00:34:59;;;;;;;25.80;6.65;;;13.60;99.90;;;;;;5074789;28;20037;-81
2021/12/30 00:37:25;;;;;;;25.58;6.53;;;13.50;99.90;;;;;;5074814;28;20044;-81
2021/12/30 00:39:50;;;;;;;23.25;6.50;;;13.50;99.90;;;;;;5074958;28;20024;-81
2021/12/30 00:42:16;;;;;;;20.98;6.45;;;13.50;99.90;;;;;;5074910;28;20068;-81
2021/12/30 00:44:42;;;;;;;26.73;6.45;;;13.50;99.90;;;;;;5074899;28;20020;-82
2021/12/30 00:47:07;;;;;;;18.25;6.00;;;13.60;99.90;;;;;;5074645;28;20538;-81
2021/12/30 00:49:33;;;;;;;16.95;5.75;;;13.60;99.90;;;;;;5074415;28;20036;-81
2021/12/30 00:51:59;;;;;;;25.40;6.55;;;13.60;99.90;;;;;;5074870;28;20031;-81
2021/12/30 00:54:25;;;;;;;14.98;4.20;;;13.60;99.90;;;;;;5074787;28;20099;-81
2021/12/30 00:56:50;;;;;;;12.60;4.85;;;13.60;99.90;;;;;;5074521;28;20043;-79
2021/12/30 00:59:16;;;;;;;11.80;4.95;;;13.70;99.90;;;;;;5074570;28;20017;-81
2021/12/30 01:01:43;;;;;;;10.68;4.32;;;13.60;99.90;;;;;;5074017;28;20535;-81
2021/12/30 01:04:09;;;;;;;9.07;3.90;;;13.70;99.90;;;;;;5074171;28;20031;-81
2021/12/30 01:06:35;;;;;;;7.90;3.53;;;13.70;99.90;;;;;;5074426;28;20028;-82
2021/12/30 01:09:01;;;;;;;10.27;3.83;;;13.70;99.90;;;;;;5072838;28;20107;-81
2021/12/30 01:11:27;;;;;;;11.45;3.70;;;13.70;99.90;;;;;;5074410;28;20024;-81
2021/12/30 01:14:14;;;;;;;9.13;3.33;;;13.70;99.90;;;;;;5074203;28;20035;-80
2021/12/30 01:16:42;;;;;;;7.65;3.15;;;13.80;99.90;;;;;;5074254;28;20488;-81
2021/12/30 01:19:54;;;;;;;5.68;2.35;;;13.70;99.90;;;;;;5073703;28;20131;-82
2021/12/30 01:21:55;;;;;;;6.75;2.10;;;13.60;99.90;;;;;;5070130;28;20114;-77
2021/12/30 01:24:22;;;;;;;5.05;2.55;;;13.70;99.90;;;;;;5073925;28;20024;-80
2021/12/30 01:26:48;;;;;;;4.03;2.00;;;13.60;99.90;;;;;;5074020;28;20033;-82
2021/12/30 01:29:14;;;;;;;5.88;1.98;;;13.60;99.90;;;;;;5073753;28;20396;-82
2021/12/30 01:31:40;;;;;;;5.85;2.05;;;13.60;99.90;;;;;;5073673;28;20029;-83
2021/12/30 01:34:06;;;;;;;6.20;1.92;;;13.60;99.90;;;;;;5073694;28;20059;-80
2021/12/30 01:36:31;;;;;;;7.38;2.05;;;13.60;99.90;;;;;;5073788;28;20020;-82
2021/12/30 01:38:58;;;;;;;5.68;1.88;;;13.60;99.90;;;;;;5073623;28;20534;-82
2021/12/30 01:41:24;;;;;;;2.67;1.23;;;13.60;99.90;;;;;;5073904;28;20048;-81
2021/12/30 01:43:50;;;;;;;6.68;2.00;;;13.60;99.90;;;;;;5073932;28;20063;-82
2021/12/30 01:46:16;;;;;;;6.97;2.08;;;13.70;99.90;;;;;;5073088;28;20028;-81
2021/12/30 01:48:43;;;;;;;6.72;2.20;;;13.60;99.90;;;;;;5073691;28;20089;-82
2021/12/30 01:51:10;;;;;;;3.80;2.30;;;13.70;99.90;;;;;;5073482;28;20112;-82
2021/12/30 01:53:37;;;;;;;3.50;1.95;;;13.60;99.90;;;;;;5073458;28;20038;-82
2021/12/30 01:56:04;;;;;;;8.90;2.67;;;13.60;99.90;;;;;;5073538;28;20026;-83
2021/12/30 01:58:30;;;;;;;5.28;2.67;;;13.60;99.90;;;;;;5073363;28;20037;-82
2021/12/30 02:00:56;;;;;;;5.45;2.28;;;13.60;99.90;;;;;;5073269;28;20052;-81
2021/12/30 02:03:23;;;;;;;6.95;2.08;;;13.60;99.90;;;;;;5073454;28;20118;-81
2021/12/30 02:05:49;;;;;;;5.25;2.20;;;13.70;99.90;;;;;;5073207;28;20020;-82
2021/12/30 02:08:18;;;;;;;5.95;2.58;;;13.60;99.90;;;;;;5073154;28;20359;-82
2021/12/30 02:10:46;;;;;;;5.20;2.45;;;13.60;99.90;;;;;;5073204;28;20028;-81
2021/12/30 02:13:13;;;;;;;6.13;2.53;;;13.60;99.90;;;;;;5072327;28;20576;-80
2021/12/30 02:15:40;;;;;;;4.60;2.33;;;13.50;99.90;;;;;;5072895;28;20400;-79
2021/12/30 02:18:06;;;;;;;5.90;2.72;;;13.50;99.90;;;;;;5072945;28;20041;-79
2021/12/30 02:20:44;;;;;;;5.95;2.70;;;13.50;99.90;;;;;;5073003;28;20031;-80
2021/12/30 02:23:12;;;;;;;5.75;3.08;;;13.50;99.90;;;;;;5073040;28;20040;-77
2021/12/30 02:25:37;;;;;;;5.65;2.80;;;13.50;99.90;;;;;;5072737;28;20078;-80
2021/12/30 02:28:14;;;;;;;8.32;2.95;;;13.50;99.90;;;;;;5072904;28;20028;-79
2021/12/30 02:30:41;;;;;;;4.63;3.08;;;13.50;99.90;;;;;;5072745;28;20465;-79
2021/12/30 02:33:07;;;;;;;4.25;3.10;;;13.50;99.90;;;;;;5072878;28;20046;-78
2021/12/30 02:35:33;;;;;;;6.95;3.20;;;13.60;99.90;;;;;;5071711;28;20096;-77
2021/12/30 02:37:59;;;;;;;5.72;3.47;;;13.60;99.90;;;;;;5072916;28;20041;-79
2021/12/30 02:40:26;;;;;;;4.15;3.63;;;13.60;99.90;;;;;;5071621;28;20027;-79
2021/12/30 02:42:53;;;;;;;4.82;3.00;;;13.60;99.90;;;;;;5073075;28;20090;-79
2021/12/30 02:45:19;;;;;;;4.10;2.83;;;13.60;99.90;;;;;;5072692;28;20470;-77
2021/12/30 02:47:45;;;;;;;5.07;2.25;;;13.60;99.90;;;;;;5072997;28;20025;-79
2021/12/30 02:50:11;;;;;;;5.10;2.55;;;13.60;99.90;;;;;;5073314;28;20020;-79
2021/12/30 02:52:37;;;;;;;6.03;2.75;;;13.60;99.90;;;;;;5063352;28;20393;-79
2021/12/30 02:55:03;;;;;;;3.40;2.33;;;13.70;99.90;;;;;;5052856;28;20029;-79
2021/12/30 02:57:29;;;;;;;3.22;2.63;;;13.70;99.90;;;;;;5052699;28;20545;-78
2021/12/30 02:59:55;;;;;;;4.05;2.60;;;13.70;99.90;;;;;;5052625;28;20092;-78
2021/12/30 03:02:20;;;;;;;3.10;2.80;;;13.70;99.90;;;;;;5053594;28;20025;-78
2021/12/30 03:04:47;;;;;;;4.00;1.88;;;13.80;99.90;;;;;;5053521;28;20365;-77
2021/12/30 03:07:17;;;;;;;3.58;2.25;;;13.70;99.90;;;;;;5052812;28;20477;-78
2021/12/30 03:09:46;;;;;;;3.42;2.67;;;13.80;99.90;;;;;;5065607;28;20115;-79
2021/12/30 03:12:12;;;;;;;6.43;2.88;;;13.80;99.90;;;;;;5075813;28;20416;-79
2021/12/30 03:14:40;;;;;;;3.22;2.67;;;13.80;99.90;;;;;;5072430;28;20381;-78
2021/12/30 03:17:06;;;;;;;3.78;2.90;;;13.80;99.90;;;;;;5072353;28;20032;-77
2021/12/30 03:19:32;;;;;;;3.42;2.33;;;13.90;99.90;;;;;;5072358;28;20046;-78
2021/12/30 03:21:58;;;;;;;3.00;2.40;;;13.90;99.90;;;;;;5072496;28;20078;-78
2021/12/30 03:24:24;;;;;;;3.28;2.17;;;13.90;99.90;;;;;;5072989;28;20029;-79
2021/12/30 03:26:50;;;;;;;2.30;2.10;;;14.00;99.90;;;;;;5076098;28;20440;-78
2021/12/30 03:29:16;;;;;;;3.45;2.03;;;14.00;99.90;;;;;;5074676;28;20036;-79
2021/12/30 03:31:41;;;;;;;3.72;2.40;;;14.00;99.90;;;;;;5076112;28;20480;-78
2021/12/30 03:34:07;;;;;;;7.05;2.20;;;14.00;99.90;;;;;;5076292;28;20086;-79
2021/12/30 03:36:33;;;;;;;2.63;1.98;;;14.00;99.90;;;;;;5076082;28;20032;-79
2021/12/30 03:38:59;;;;;;;3.65;1.92;;;14.10;99.90;;;;;;5074911;28;20075;-79
2021/12/30 03:41:27;;;;;;;2.92;1.70;;;14.10;99.90;;;;;;5076005;28;20035;-79
2021/12/30 03:43:53;;;;;;;1.90;1.75;;;14.10;99.90;;;;;;5075624;28;20024;-79
2021/12/30 03:46:20;;;;;;;1.73;1.60;;;14.20;99.90;;;;;;5075955;28;20043;-79
2021/12/30 03:48:46;;;;;;;1.10;1.05;;;14.10;99.90;;;;;;5075715;28;20483;-79
2021/12/30 03:51:20;;;;;;;1.73;1.35;;;14.20;99.90;;;;;;5075916;28;20031;-78
2021/12/30 03:53:49;;;;;;;1.83;1.58;;;14.20;99.90;;;;;;5075882;28;20115;-79
2021/12/30 03:56:17;;;;;;;2.13;1.60;;;14.20;99.90;;;;;;5075679;28;20021;-79
2021/12/30 03:58:44;;;;;;;3.05;1.70;;;14.10;99.90;;;;;;5075209;28;20036;-79
2021/12/30 04:01:14;;;;;;;2.42;1.67;;;14.00;99.90;;;;;;5075735;28;20029;-75
2021/12/30 04:03:40;;;;;;;1.40;1.30;;;14.10;99.90;;;;;;5075848;28;20431;-79
2021/12/30 04:06:06;;;;;;;1.52;1.10;;;14.10;99.90;;;;;;5075484;28;20055;-79
2021/12/30 04:08:32;;;;;;;1.70;1.13;;;14.10;99.90;;;;;;5075296;28;20062;-79
2021/12/30 04:10:58;;;;;;;0.68;0.68;;;14.10;99.90;;;;;;5075615;28;20037;-79
2021/12/30 04:13:24;;;;;;;1.10;0.68;;;14.20;99.90;;;;;;5075059;28;20021;-79
2021/12/30 04:15:51;;;;;;;1.67;0.68;;;14.20;99.90;;;;;;5075324;28;20525;-79
2021/12/30 04:18:16;;;;;;;0.60;0.60;;;14.20;99.90;;;;;;5074996;28;20101;-79
2021/12/30 04:20:42;;;;;;;0.80;0.80;;;14.20;99.90;;;;;;5075403;28;20447;-79
2021/12/30 04:23:08;;;;;;;1.05;0.75;;;14.20;99.90;;;;;;5075326;28;20036;-79
2021/12/30 04:25:34;;;;;;;2.88;1.00;;;14.20;99.90;;;;;;5073588;28;20021;-78
2021/12/30 04:28:00;;;;;;;1.42;0.90;;;14.20;99.90;;;;;;5074860;28;20051;-79
2021/12/30 04:30:26;;;;;;;2.17;0.98;;;14.20;99.90;;;;;;5075196;28;20497;-78
2021/12/30 04:32:52;;;;;;;0.85;0.80;;;14.20;99.90;;;;;;5073834;28;20029;-79
2021/12/30 04:35:18;;;;;;;1.05;0.80;;;14.20;99.90;;;;;;5075229;28;20048;-79
2021/12/30 04:37:44;;;;;;;0.90;0.82;;;14.30;99.90;;;;;;5073954;28;20129;-79
2021/12/30 04:40:12;;;;;;;0.60;0.60;;;14.20;99.90;;;;;;5075138;28;20496;-78
2021/12/30 04:42:37;;;;;;;1.23;0.60;;;14.30;99.90;;;;;;5074937;28;20028;-79
2021/12/30 04:45:04;;;;;;;0.98;0.70;;;14.20;99.90;;;;;;5074822;28;20070;-79
2021/12/30 04:47:30;;;;;;;0.70;0.60;;;14.20;99.90;;;;;;5074929;28;20362;-79
2021/12/30 04:49:57;;;;;;;2.60;1.02;;;14.20;99.90;;;;;;5075104;28;20034;-79
2021/12/30 04:52:25;;;;;;;2.20;0.70;;;14.20;99.90;;;;;;5074660;28;20032;-80
2021/12/30 04:54:50;;;;;;;2.10;1.10;;;14.20;99.90;;;;;;5074355;28;20024;-80
2021/12/30 04:57:17;;;;;;;2.35;1.10;;;14.20;99.90;;;;;;5074511;28;20029;-78
2021/12/30 04:59:42;;;;;;;2.08;0.90;;;14.20;99.90;;;;;;5074508;28;20028;-79
2021/12/30 05:02:08;;;;;;;0.85;0.80;;;14.20;99.90;;;;;;5074369;28;20366;-79
2021/12/30 05:04:34;;;;;;;1.25;0.73;;;14.30;99.90;;;;;;5074480;28;20025;-79
2021/12/30 05:07:00;;;;;;;1.02;0.80;;;14.20;99.90;;;;;;5074331;28;20487;-80
2021/12/30 05:09:25;;;;;;;0.98;0.85;;;14.20;99.90;;;;;;5073815;28;20366;-79
2021/12/30 05:11:51;;;;;;;1.90;0.50;;;14.20;99.90;;;;;;5074558;28;20373;-79
2021/12/30 05:14:17;;;;;;;0.80;0.63;;;14.20;99.90;;;;;;5072944;28;20499;-79
2021/12/30 05:16:44;;;;;;;1.27;0.60;;;14.20;99.90;;;;;;5074366;28;20028;-80
2021/12/30 05:19:10;;;;;;;2.47;0.80;;;14.20;99.90;;;;;;5073986;28;20043;-80
2021/12/30 05:21:36;;;;;;;6.82;0.98;;;14.10;99.90;;;;;;5072886;28;20399;-80
2021/12/30 05:24:02;;;;;;;1.77;0.68;;;14.10;99.90;;;;;;5073731;28;20041;-79
2021/12/30 05:26:28;;;;;;;2.83;1.20;;;14.10;99.90;;;;;;5073985;28;20108;-79
2021/12/30 05:28:55;;;;;;;3.60;0.85;;;14.10;99.90;;;;;;5072349;28;20392;-78
2021/12/30 05:31:21;;;;;;;1.95;0.90;;;14.00;99.90;;;;;;5074050;28;20431;-78
2021/12/30 05:33:47;;;;;;;2.17;1.30;;;13.90;99.90;;;;;;5073966;28;20028;-80
2021/12/30 05:36:13;;;;;;;3.45;1.15;;;13.90;99.90;;;;;;5073876;28;20020;-80
2021/12/30 05:38:38;;;;;;;2.55;1.10;;;13.80;99.90;;;;;;5073555;28;20527;-80
2021/12/30 05:41:04;;;;;;;3.42;1.40;;;13.80;99.90;;;;;;5072419;28;20469;-80
2021/12/30 05:43:30;;;;;;;3.95;1.55;;;13.80;99.90;;;;;;5073808;28;20398;-79
2021/12/30 05:45:56;;;;;;;2.22;1.25;;;13.80;99.90;;;;;;5073735;28;20029;-80
2021/12/30 05:48:22;;;;;;;3.58;1.33;;;13.80;99.90;;;;;;5073310;28;20033;-78
2021/12/30 05:50:48;;;;;;;2.83;1.30;;;13.80;99.90;;;;;;5073445;28;20103;-79
2021/12/30 05:53:14;;;;;;;5.43;1.52;;;13.80;99.90;;;;;;5073345;28;20032;-79
2021/12/30 05:55:40;;;;;;;2.38;1.33;;;13.80;99.90;;;;;;5073333;28;20466;-80
2021/12/30 05:58:05;;;;;;;3.65;1.63;;;13.80;99.90;;;;;;5073391;28;20408;-79
2021/12/30 06:00:32;;;;;;;2.85;1.65;;;13.80;99.90;;;;;;5073384;28;20029;-78
2021/12/30 06:02:59;;;;;;;1.77;1.35;;;13.80;99.90;;;;;;5073264;28;20031;-79
2021/12/30 06:05:25;;;;;;;3.05;1.63;;;13.90;99.90;;;;;;5072036;28;20531;-78
2021/12/30 06:07:51;;;;;;;3.22;1.55;;;14.00;99.90;;;;;;5072917;28;20032;-78
2021/12/30 06:10:17;;;;;;;2.15;1.40;;;14.00;99.90;;;;;;5073056;28;20119;-79
2021/12/30 06:12:43;;;;;;;2.70;1.52;;;14.00;99.90;;;;;;5073200;28;20032;-79
2021/12/30 06:15:10;;;;;;;4.90;1.30;;;14.00;99.90;;;;;;5071758;28;20031;-78
2021/12/30 06:17:37;;;;;;;5.78;1.90;;;14.10;99.90;;;;;;5073073;28;20480;-78
2021/12/30 06:20:05;;;;;;;2.30;1.27;;;14.10;99.90;;;;;;5072803;28;20039;-78
2021/12/30 06:22:31;;;;;;;5.35;1.40;;;14.10;99.90;;;;;;5072766;28;20339;-79
2021/12/30 06:24:57;;;;;;;5.20;1.30;;;14.10;99.90;;;;;;5073130;28;20031;-77
2021/12/30 06:27:22;;;;;;;2.58;1.10;;;14.20;99.90;;;;;;5071495;28;20095;-78
2021/12/30 06:29:48;;;;;;;2.72;1.10;;;14.20;99.90;;;;;;5073007;28;20036;-78
2021/12/30 06:32:14;;;;;;;5.28;1.15;;;14.30;99.90;;;;;;5072896;28;20108;-78
2021/12/30 06:34:39;;;;;;;1.15;1.00;;;14.30;99.90;;;;;;5073010;28;20025;-78
2021/12/30 06:37:05;;;;;;;2.83;1.20;;;14.20;99.90;;;;;;5072458;28;20041;-78
2021/12/30 06:39:31;;;;;;;4.38;1.20;;;14.20;99.90;;;;;;5072765;28;20037;-78
2021/12/30 06:41:57;;;;;;;5.35;1.40;;;14.30;99.90;;;;;;5072752;28;20039;-78
2021/12/30 06:44:22;;;;;;;1.95;1.13;;;14.30;99.90;;;;;;5073099;28;20115;-78
2021/12/30 06:46:58;;;;;;;4.63;1.50;;;14.20;99.90;;;;;;5072791;28;20155;-78
2021/12/30 06:49:24;;;;;;;3.92;1.25;;;14.20;99.90;;;;;;5062634;28;20041;-78
2021/12/30 06:51:50;;;;;;;2.28;1.25;;;14.20;99.90;;;;;;5051653;28;20017;-79
2021/12/30 06:54:16;;;;;;;4.85;1.40;;;14.20;99.90;;;;;;5051746;28;20397;-79
2021/12/30 06:56:43;;;;;;;5.03;2.35;;;14.20;99.90;;;;;;5052453;28;20071;-79
2021/12/30 06:59:14;;;;;;;3.20;1.75;;;14.20;99.90;;;;;;5051463;28;20021;-79
2021/12/30 07:01:43;;;;;;;3.85;1.60;;;14.20;99.90;;;;;;5056896;28;20021;-78
2021/12/30 07:04:09;;;;;;;4.68;1.92;;;14.20;99.90;;;;;;5055579;28;20025;-79
2021/12/30 07:06:35;;;;;;;4.55;1.30;;;14.20;99.90;;;;;;5056224;28;20101;-78
2021/12/30 07:09:00;;;;;;;2.55;1.40;;;14.30;99.90;;;;;;5062086;28;20024;-79
2021/12/30 07:11:26;;;;;;;4.25;1.20;;;14.20;99.90;;;;;;5076598;28;20056;-79
2021/12/30 07:13:52;;;;;;;5.65;1.42;;;14.20;99.90;;;;;;5076727;28;20032;-79
2021/12/30 07:16:17;;;;;;;4.85;1.50;;;14.30;99.90;;;;;;5076476;28;20070;-79
2021/12/30 07:18:43;;;;;;;6.90;1.60;;;14.30;99.90;;;;;;5075137;28;20417;-78
2021/12/30 07:21:09;;;;;;;5.32;1.85;;;14.30;99.90;;;;;;5075126;28;20021;-79
2021/12/30 07:23:35;;;;;;;2.45;1.15;;;14.30;99.90;;;;;;5076270;28;20112;-79
2021/12/30 07:26:00;;;;;;;4.82;1.73;;;14.30;99.90;;;;;;5075106;28;20385;-79
2021/12/30 07:28:26;;;;;;;6.35;1.40;;;14.30;99.90;;;;;;5075929;28;20100;-79
2021/12/30 07:30:52;;;;;;;5.75;1.45;;;14.30;99.90;;;;;;5075073;28;20477;-79
2021/12/30 07:33:17;;;;;;;7.80;1.90;;;14.30;99.90;;;;;;5076139;28;20055;-79
2021/12/30 07:35:43;;;;;;;8.20;2.55;;;14.30;99.90;;;;;;5075835;28;20025;-79
2021/12/30 07:38:09;;;;;;;8.13;1.58;;;14.30;99.90;;;;;;5074405;28;20029;-81
2021/12/30 07:40:34;;;;;;;6.03;1.80;;;14.30;99.90;;;;;;5076078;28;20381;-79
2021/12/30 07:43:00;;;;;;;7.85;1.80;;;14.30;99.90;;;;;;5074667;28;20040;-79
2021/12/30 07:45:26;;;;;;;8.90;2.33;;;14.30;99.90;;;;;;5075991;28;20024;-79
2021/12/30 07:47:53;;;;;;;9.60;2.42;;;14.30;99.90;;;;;;5075639;28;20455;-79
2021/12/30 07:50:20;;;;;;;9.00;2.92;;;14.30;99.90;;;;;;5076082;28;20522;-80
2021/12/30 07:52:47;;;;;;;8.30;2.15;;;14.30;99.90;;;;;;5075729;28;20539;-78
2021/12/30 07:55:13;;;;;;;5.55;2.00;;;14.30;99.90;;;;;;5075881;28;20025;-79
2021/12/30 07:57:40;;;;;;;7.65;2.58;;;14.30;99.90;;;;;;5075376;28;20378;-79
2021/12/30 08:00:11;;;;;;;9.55;2.33;;;14.30;99.90;;;;;;5075627;28;20033;-78
2021/12/30 08:02:42;;;;;;;11.73;3.17;;;14.30;99.90;;;;;;5075426;28;20028;-79
2021/12/30 08:05:12;;;;;;;7.93;2.65;;;14.30;99.90;;;;;;5075309;28;20028;-79
2021/12/30 08:07:38;;;;;;;13.30;3.20;;;14.40;99.90;;;;;;5075427;28;20048;-79
2021/12/30 08:10:10;;;;;;;12.70;3.00;;;14.40;99.90;;;;;;5075811;28;20017;-79
2021/12/30 08:12:37;;;;;;;15.43;3.97;;;14.40;99.90;;;;;;5073980;28;20036;-77
2021/12/30 08:15:03;;;;;;;12.32;2.97;;;14.40;99.90;;;;;;5075556;28;20028;-79
2021/12/30 08:17:29;;;;;;;12.55;3.40;;;14.40;99.90;;;;;;5075139;28;20027;-80
2021/12/30 08:19:55;;;;;;;21.25;2.80;;;14.40;99.90;;;;;;5073662;28;20044;-79
2021/12/30 08:22:20;;;;;;;11.23;3.13;;;14.40;99.90;;;;;;5075401;28;20032;-80
2021/12/30 08:24:46;;;;;;;11.20;3.30;;;14.40;99.90;;;;;;5075083;28;20070;-79
2021/12/30 08:27:13;;;;;;;17.20;3.22;;;14.40;99.90;;;;;;5075236;28;20017;-79
2021/12/30 08:29:39;;;;;;;13.80;3.17;;;14.40;99.90;;;;;;5073814;28;20044;-79
2021/12/30 08:32:08;;;;;;;15.65;3.47;;;14.40;99.90;;;;;;5074787;28;20012;-79
2021/12/30 08:34:34;;;;;;;8.98;2.63;;;14.40;99.90;;;;;;5073840;28;20041;-79
2021/12/30 08:36:59;;;;;;;21.52;4.05;;;14.40;99.90;;;;;;5074963;28;20028;-80
2021/12/30 08:39:25;;;;;;;16.45;3.72;;;14.40;99.90;;;;;;5073838;28;20032;-79
2021/12/30 08:41:51;;;;;;;23.10;4.82;;;14.40;99.90;;;;;;5074805;28;20031;-79
2021/12/30 08:44:16;;;;;;;18.67;3.92;;;14.40;99.90;;;;;;5073461;28;20033;-79
2021/12/30 08:46:42;;;;;;;20.92;4.60;;;14.40;99.90;;;;;;5074588;28;20033;-79
2021/12/30 08:49:08;;;;;;;21.42;3.65;;;14.40;99.90;;;;;;5073128;28;20086;-77
2021/12/30 08:51:34;;;;;;;21.02;4.63;;;14.40;99.90;;;;;;5074899;28;20033;-78
2021/12/30 08:53:59;;;;;;;18.27;3.90;;;14.50;99.90;;;;;;5074614;28;20040;-79
2021/12/30 08:56:25;;;;;;;18.85;3.80;;;14.50;99.90;;;;;;5074784;28;20036;-78
2021/12/30 08:58:51;;;;;;;17.85;4.03;;;14.60;99.90;;;;;;5074289;28;20051;-79
2021/12/30 09:01:16;;;;;;;23.98;4.32;;;14.50;99.90;;;;;;5072986;28;20025;-79
2021/12/30 09:03:42;;;;;;;18.27;3.42;;;14.60;99.90;;;;;;5074463;28;20032;-78
2021/12/30 09:06:08;;;;;;;18.73;4.32;;;14.60;99.90;;;;;;5074611;28;20411;-79
2021/12/30 09:08:33;;;;;;;18.77;3.90;;;14.60;99.90;;;;;;5074202;28;20496;-79
2021/12/30 09:10:59;;;;;;;20.52;4.32;;;14.60;99.90;;;;;;5074258;28;20021;-78
2021/12/30 09:13:25;;;;;;;21.15;4.40;;;14.60;99.90;;;;;;5074436;28;20052;-78
2021/12/30 09:15:51;;;;;;;31.85;5.28;;;14.60;99.90;;;;;;5073867;28;20031;-80
2021/12/30 09:18:16;;;;;;;22.67;3.58;;;14.50;99.90;;;;;;5072641;28;20068;-78
2021/12/30 09:20:43;;;;;;;23.75;3.97;;;14.60;99.90;;;;;;5074123;28;20032;-77
2021/12/30 09:23:11;;;;;;;21.50;3.60;;;14.70;99.90;;;;;;5073648;28;20021;-79
2021/12/30 09:25:39;;;;;;;18.77;4.05;;;14.70;99.90;;;;;;5073876;28;20388;-78
2021/12/30 09:28:04;;;;;;;16.75;3.90;;;14.70;99.90;;;;;;5073882;28;20044;-79
2021/12/30 09:30:31;;;;;;;37.38;9.38;;;14.70;99.90;;;;;;5073646;28;20523;-79
2021/12/30 09:32:59;;;;;;;31.27;5.95;;;14.70;99.90;;;;;;5073930;28;20017;-79
2021/12/30 09:35:25;;;;;;;22.27;4.30;;;14.70;99.90;;;;;;5072932;28;20013;-78
2021/12/30 09:37:52;;;;;;;27.50;9.00;;;14.80;99.90;;;;;;5073578;28;20068;-79
2021/12/30 09:40:19;;;;;;;22.73;5.07;;;14.80;99.90;;;;;;5073673;28;20504;-78
2021/12/30 09:42:52;;;;;;;26.90;5.22;;;14.80;99.90;;;;;;5073907;28;20319;-79
2021/12/30 09:45:19;;;;;;;21.38;4.88;;;14.90;99.90;;;;;;5073366;28;20036;-80
2021/12/30 09:47:53;;;;;;;18.88;4.68;;;14.90;99.90;;;;;;5073802;28;20029;-79
2021/12/30 09:50:22;;;;;;;17.88;3.90;;;14.90;99.90;;;;;;5073601;28;20086;-79
2021/12/30 09:52:48;;;;;;;17.90;4.13;;;14.90;99.90;;;;;;5073406;28;20029;-79
2021/12/30 09:55:14;;;;;;;22.35;5.30;;;14.90;99.90;;;;;;5072289;28;20111;-79
2021/12/30 09:57:40;;;;;;;24.33;5.20;;;15.00;99.90;;;;;;5073420;28;20031;-79
2021/12/30 10:00:10;;;;;;;21.05;4.30;;;15.00;99.90;;;;;;5073109;28;20304;-80
2021/12/30 10:02:44;;;;;;;22.30;5.00;;;15.00;99.90;;;;;;5073689;28;20494;-78
2021/12/30 10:05:32;;;;;;;20.67;5.30;;;15.00;99.90;;;;;;5073150;28;20412;-78
2021/12/30 10:08:20;;;;;;;20.23;3.35;;;15.00;99.90;;;;;;5073181;28;20024;-79
2021/12/30 10:10:52;;;;;;;20.88;5.70;;;15.00;99.90;;;;;;5053214;28;20032;-79
2021/12/30 10:13:17;;;;;;;15.75;4.00;;;14.90;99.90;;;;;;5053207;28;20495;-78
2021/12/30 10:15:45;;;;;;;19.08;3.88;;;14.90;99.90;;;;;;5052686;28;20025;-78
2021/12/30 10:18:12;;;;;;;18.48;4.53;;;14.90;99.90;;;;;;5052971;28;20040;-78
2021/12/30 10:20:40;;;;;;;14.02;4.05;;;14.90;99.90;;;;;;5053080;28;20033;-79
2021/12/30 10:23:13;;;;;;;18.00;3.50;;;14.80;99.90;;;;;;5053113;28;20028;-79
2021/12/30 10:25:42;;;;;;;11.10;3.15;;;14.80;99.90;;;;;;5057192;28;20021;-78
2021/12/30 10:28:16;;;;;;;12.30;2.97;;;14.90;99.90;;;;;;5072726;28;20036;-79
2021/12/30 10:30:42;;;;;;;12.70;2.83;;;14.90;99.90;;;;;;5073014;28;20101;-79
2021/12/30 10:33:17;;;;;;;13.20;4.15;;;15.00;99.90;;;;;;5072879;28;20024;-78
2021/12/30 10:35:43;;;;;;;15.15;2.70;;;15.00;99.90;;;;;;5072085;28;20017;-79
2021/12/30 10:38:10;;;;;;;15.82;3.42;;;15.00;99.90;;;;;;5072813;28;20381;-78
2021/12/30 10:40:39;;;;;;;17.55;3.90;;;15.00;99.90;;;;;;5073281;28;20099;-78
2021/12/30 10:43:20;;;;;;;17.98;3.45;;;15.00;99.90;;;;;;5071314;28;20135;-79
2021/12/30 10:46:07;;;;;;;18.02;3.85;;;15.10;99.90;;;;;;5073029;28;20040;-78
2021/12/30 10:48:45;;;;;;;13.00;4.10;;;15.10;99.90;;;;;;5072833;28;20045;-79
2021/12/30 10:51:20;;;;;;;15.00;3.50;;;15.10;99.90;;;;;;5072704;28;20465;-79
2021/12/30 10:53:46;;;;;;;10.77;2.60;;;15.10;99.90;;;;;;5072762;28;20074;-79
2021/12/30 10:56:59;;;;;;;13.45;2.83;;;15.20;99.90;;;;;;5072694;28;20017;-78
2021/12/30 10:59:30;;;;;;;10.27;2.70;;;15.20;99.90;;;;;;5053408;28;20446;-78
2021/12/30 11:02:09;;;;;;;12.23;3.33;;;15.30;99.90;;;;;;5072565;28;20182;-79
2021/12/30 11:04:35;;;;;;;10.85;3.33;;;15.30;99.90;;;;;;5071349;28;20021;-79
2021/12/30 11:07:00;;;;;;;7.75;2.38;;;15.30;99.90;;;;;;5072411;28;20366;-79
2021/12/30 11:09:27;;;;;;;14.85;3.10;;;15.30;99.90;;;;;;5072513;28;20481;-79
2021/12/30 11:12:00;;;;;;;14.45;3.92;;;15.50;99.90;;;;;;5070936;28;20033;-79
2021/12/30 11:14:29;;;;;;;13.45;3.33;;;15.50;99.90;;;;;;5072627;28;20082;-78
2021/12/30 11:17:03;;;;;;;8.82;2.78;;;15.60;99.90;;;;;;5072192;28;20196;-79
2021/12/30 11:19:31;;;;;;;14.77;3.60;;;15.50;99.90;;;;;;5071209;28;20048;-79
2021/12/30 11:21:59;;;;;;;19.15;4.75;;;15.60;99.90;;;;;;5071107;28;20043;-79
2021/12/30 11:24:27;;;;;;;9.73;2.67;;;15.60;99.90;;;;;;5072393;28;20075;-78
2021/12/30 11:26:54;;;;;;;9.95;2.63;;;15.70;99.90;;;;;;5071985;28;20020;-79
2021/12/30 11:29:21;;;;;;;11.48;2.95;;;15.70;99.90;;;;;;5072269;28;20024;-78
2021/12/30 11:31:48;;;;;;;9.15;2.38;;;15.70;99.90;;;;;;5072416;28;20067;-77
2021/12/30 11:34:13;;;;;;;10.18;3.38;;;15.70;99.90;;;;;;5072332;28;20024;-78
2021/12/30 11:36:39;;;;;;;13.68;3.33;;;15.70;99.90;;;;;;5072292;28;20397;-77
2021/12/30 11:39:15;;;;;;;12.00;3.75;;;15.80;99.90;;;;;;5070952;28;20048;-75
2021/12/30 11:41:44;;;;;;;12.40;4.38;;;15.90;99.90;;;;;;5070604;28;20374;-78
2021/12/30 11:44:29;;;;;;;10.23;2.42;;;15.80;99.90;;;;;;5072048;28;20036;-79
2021/12/30 11:46:55;;;;;;;8.18;1.80;;;15.80;99.90;;;;;;5074925;28;20021;-79
2021/12/30 11:49:21;;;;;;;9.48;2.60;;;15.60;99.90;;;;;;5076093;28;20099;-78
2021/12/30 11:51:52;;;;;;;9.35;3.20;;;15.50;99.90;;;;;;5075883;28;20082;-78
2021/12/30 11:54:35;;;;;;;14.23;2.83;;;15.40;99.90;;;;;;5075587;28;20036;-80
2021/12/30 11:57:27;;;;;;;10.00;2.63;;;15.40;99.90;;;;;;5075274;28;20045;-73
2021/12/30 11:59:57;;;;;;;9.93;3.30;;;15.40;99.90;;;;;;5075780;28;20089;-79
2021/12/30 12:02:33;;;;;;;10.73;2.42;;;15.30;99.90;;;;;;5075587;28;20466;-79
2021/12/30 12:04:58;;;;;;;12.70;2.78;;;15.20;99.90;;;;;;5075807;28;20074;-79
2021/12/30 12:07:24;;;;;;;8.13;2.72;;;15.30;99.90;;;;;;5075363;28;20040;-78
2021/12/30 12:09:50;;;;;;;12.85;3.28;;;15.20;99.90;;;;;;5075112;28;20059;-79
2021/12/30 12:12:34;;;;;;;14.93;5.72;;;15.30;99.90;;;;;;5075659;28;20468;-77
2021/12/30 12:15:03;;;;;;;15.27;4.57;;;15.30;99.90;;;;;;5075346;28;20017;-79
2021/12/30 12:17:40;;;;;;;17.98;3.83;;;15.40;99.90;;;;;;5073853;28;20052;-78
2021/12/30 12:20:27;;;;;;;6.88;2.33;;;15.60;99.90;;;;;;5075246;28;20072;-78
2021/12/30 12:22:53;;;;;;;9.20;2.13;;;15.60;99.90;;;;;;5075144;28;20029;-78
2021/12/30 12:25:24;;;;;;;4.00;2.05;;;15.70;99.90;;;;;;5074934;28;20040;-78
2021/12/30 12:27:53;;;;;;;9.75;2.58;;;15.90;99.90;;;;;;5074857;28;20029;-78
2021/12/30 12:30:30;;;;;;;9.40;2.28;;;15.80;99.90;;;;;;5075112;28;20036;-79
2021/12/30 12:32:58;;;;;;;12.07;3.03;;;15.80;99.90;;;;;;5073621;28;20381;-79
2021/12/30 12:35:26;;;;;;;13.60;2.33;;;16.10;99.90;;;;;;5074876;28;20025;-78
2021/12/30 12:37:56;;;;;;;7.82;3.25;;;15.80;99.90;;;;;;5073716;28;20039;-79
2021/12/30 12:40:32;;;;;;;8.23;2.47;;;15.90;99.90;;;;;;5074761;28;20032;-79
2021/12/30 12:43:06;;;;;;;9.68;2.78;;;15.80;99.90;;;;;;5074896;28;20081;-77
2021/12/30 12:45:55;;;;;;;13.05;2.95;;;15.80;99.90;;;;;;5074773;28;20387;-79